createdAt,value
2017-08-12T00:01:47.573Z,97105.56
2017-08-12T00:04:15.170Z,97111.11
2017-08-12T00:06:42.788Z,97111.53
2017-08-12T00:09:10.567Z,97107.69
2017-08-12T00:11:38.153Z,97112.80
2017-08-12T00:14:05.815Z,97104.70
2017-08-12T00:16:33.414Z,97107.69
2017-08-12T00:19:01.120Z,97110.24
2017-08-12T00:21:28.911Z,97118.75
2017-08-12T00:23:56.939Z,97111.94
2017-08-12T00:26:24.544Z,97110.23
2017-08-12T00:28:52.129Z,97097.03
2017-08-12T00:31:19.763Z,97096.62
2017-08-12T00:33:47.384Z,97095.33
2017-08-12T00:36:15.018Z,97100.44
2017-08-12T00:38:43.294Z,97097.03
2017-08-12T00:41:10.938Z,97101.72
2017-08-12T00:43:38.674Z,97106.41
2017-08-12T00:46:06.604Z,97106.83
2017-08-12T00:48:34.213Z,97110.65
2017-08-12T00:51:01.814Z,97114.92
2017-08-12T00:53:29.444Z,97110.63
2017-08-12T00:55:57.039Z,97117.02
2017-08-12T00:58:24.673Z,97113.20
2017-08-12T01:00:52.363Z,97117.86
2017-08-12T01:03:19.980Z,97128.09
2017-08-12T01:05:47.568Z,97122.97
2017-08-12T01:08:15.188Z,97128.50
2017-08-12T01:10:42.766Z,97128.95
2017-08-12T01:13:10.380Z,97128.95
2017-08-12T01:15:37.990Z,97123.41
2017-08-12T01:18:05.750Z,97125.52
2017-08-12T01:20:33.375Z,97131.06
2017-08-12T01:23:00.957Z,97141.70
2017-08-12T01:25:28.576Z,97139.14
2017-08-12T01:27:56.177Z,97137.01
2017-08-12T01:30:23.788Z,97136.56
2017-08-12T01:32:51.375Z,97137.00
2017-08-12T01:35:19.150Z,97134.87
2017-08-12T01:37:48.282Z,97134.87
2017-08-12T01:40:15.889Z,97137.84
2017-08-12T01:42:43.498Z,97134.45
2017-08-12T01:45:11.420Z,97140.83
2017-08-12T01:47:39.009Z,97139.56
2017-08-12T01:50:06.627Z,97139.54
2017-08-12T01:52:34.237Z,97140.84
2017-08-12T01:55:01.977Z,97139.12
2017-08-12T01:57:29.607Z,97150.21
2017-08-12T01:59:57.180Z,97151.06
2017-08-12T02:02:24.783Z,97152.34
2017-08-12T02:04:52.361Z,97159.16
2017-08-12T02:07:19.964Z,97157.05
2017-08-12T02:09:47.544Z,97156.60
2017-08-12T02:12:15.509Z,97156.63
2017-08-12T02:14:43.118Z,97157.89
2017-08-12T02:17:10.725Z,97165.99
2017-08-12T02:19:38.356Z,97169.81
2017-08-12T02:22:05.947Z,97175.34
2017-08-12T02:24:33.586Z,97177.92
2017-08-12T02:27:01.195Z,97179.17
2017-08-12T02:29:28.846Z,97183.00
2017-08-12T02:31:56.427Z,97183.85
2017-08-12T02:34:24.054Z,97175.81
2017-08-12T02:36:51.655Z,97177.91
2017-08-12T02:39:19.595Z,97187.71
2017-08-12T02:41:47.188Z,97187.27
2017-08-12T02:44:14.799Z,97183.89
2017-08-12T02:46:42.399Z,97186.00
2017-08-12T02:49:09.978Z,97179.18
2017-08-12T02:51:37.579Z,97180.91
2017-08-12T02:54:05.190Z,97175.78
2017-08-12T02:56:32.829Z,97182.19
2017-08-12T02:59:00.424Z,97169.41
2017-08-12T03:01:28.049Z,97174.95
2017-08-12T03:03:55.644Z,97171.13
2017-08-12T03:06:23.618Z,97170.69
2017-08-12T03:08:51.224Z,97171.55
2017-08-12T03:11:18.867Z,97170.70
2017-08-12T03:13:46.473Z,97169.86
2017-08-12T03:16:14.064Z,97169.42
2017-08-12T03:18:41.687Z,97171.11
2017-08-12T03:21:09.289Z,97160.06
2017-08-12T03:23:36.901Z,97162.17
2017-08-12T03:26:04.491Z,97156.25
2017-08-12T03:28:32.426Z,97163.05
2017-08-12T03:31:00.011Z,97161.33
2017-08-12T03:33:28.487Z,97151.99
2017-08-12T03:35:56.146Z,97155.78
2017-08-12T03:38:23.755Z,97146.00
2017-08-12T03:40:51.351Z,97143.89
2017-08-12T03:43:18.955Z,97143.04
2017-08-12T03:45:46.569Z,97142.19
2017-08-12T03:48:14.170Z,97145.15
2017-08-12T03:50:42.105Z,97146.45
2017-08-12T03:53:09.698Z,97151.13
2017-08-12T03:55:37.306Z,97145.15
2017-08-12T03:58:04.989Z,97141.77
2017-08-12T04:00:32.709Z,97143.05
2017-08-12T04:03:00.304Z,97143.02
2017-08-12T04:05:28.015Z,97142.59
2017-08-12T04:07:55.620Z,97150.70
2017-08-12T04:10:24.214Z,97153.66
2017-08-12T04:12:51.821Z,97149.85
2017-08-12T04:15:19.404Z,97155.80
2017-08-12T04:17:47.286Z,97160.47
2017-08-12T04:20:14.877Z,97155.80
2017-08-12T04:22:42.466Z,97154.50
2017-08-12T04:25:10.224Z,97163.02
2017-08-12T04:27:37.795Z,97163.02
2017-08-12T04:30:05.449Z,97163.87
2017-08-12T04:32:33.043Z,97162.16
2017-08-12T04:35:00.653Z,97157.92
2017-08-12T04:37:28.232Z,97166.83
2017-08-12T04:39:55.830Z,97162.59
2017-08-12T04:42:23.421Z,97159.61
2017-08-12T04:44:51.399Z,97160.88
2017-08-12T04:47:18.998Z,97161.73
2017-08-12T04:49:46.600Z,97163.48
2017-08-12T04:52:14.201Z,97155.40
2017-08-12T04:54:41.805Z,97155.80
2017-08-12T04:57:09.422Z,97151.13
2017-08-12T04:59:37.034Z,97151.56
2017-08-12T05:02:04.728Z,97160.47
2017-08-12T05:04:32.509Z,97164.73
2017-08-12T05:07:00.559Z,97167.27
2017-08-12T05:09:28.158Z,97175.78
2017-08-12T05:11:55.751Z,97171.95
2017-08-12T05:14:23.489Z,97177.50
2017-08-12T05:16:51.094Z,97179.19
2017-08-12T05:19:18.801Z,97176.66
2017-08-12T05:21:46.415Z,97174.07
2017-08-12T05:24:14.034Z,97179.19
2017-08-12T05:26:41.605Z,97180.47
2017-08-12T05:29:09.242Z,97187.68
2017-08-12T05:31:37.031Z,97194.52
2017-08-12T05:34:04.797Z,97194.09
2017-08-12T05:36:32.382Z,97203.45
2017-08-12T05:39:00.267Z,97197.07
2017-08-12T05:41:27.994Z,97191.52
2017-08-12T05:43:55.578Z,97192.80
2017-08-12T05:46:23.218Z,97195.34
2017-08-12T05:48:50.808Z,97195.78
2017-08-12T05:51:18.417Z,97193.63
2017-08-12T05:53:46.004Z,97195.34
2017-08-12T05:56:13.618Z,97190.65
2017-08-12T05:58:41.229Z,97196.59
2017-08-12T06:01:08.880Z,97195.33
2017-08-12T06:03:36.486Z,97195.72
2017-08-12T06:06:04.080Z,97199.16
2017-08-12T06:08:31.681Z,97198.71
2017-08-12T06:10:59.574Z,97196.59
2017-08-12T06:13:27.184Z,97197.00
2017-08-12T06:15:54.797Z,97199.15
2017-08-12T06:18:22.386Z,97203.40
2017-08-12T06:20:49.975Z,97205.93
2017-08-12T06:23:17.609Z,97209.77
2017-08-12T06:25:49.834Z,97213.16
2017-08-12T06:28:17.583Z,97217.01
2017-08-12T06:30:45.199Z,97220.41
2017-08-12T06:33:13.242Z,97230.61
2017-08-12T06:35:40.840Z,97233.19
2017-08-12T06:38:08.510Z,97236.56
2017-08-12T06:40:36.307Z,97234.87
2017-08-12T06:43:05.571Z,97239.54
2017-08-12T06:45:33.202Z,97243.79
2017-08-12T06:48:00.829Z,97246.76
2017-08-12T06:50:28.943Z,97240.78
2017-08-12T06:52:56.554Z,97241.63
2017-08-12T06:55:24.148Z,97242.03
2017-08-12T06:57:52.045Z,97244.16
2017-08-12T07:00:19.637Z,97243.27
2017-08-12T07:02:47.256Z,97242.44
2017-08-12T07:05:15.017Z,97242.84
2017-08-12T07:07:42.972Z,97248.37
2017-08-12T07:10:10.569Z,97249.61
2017-08-12T07:12:38.170Z,97255.17
2017-08-12T07:15:05.795Z,97256.42
2017-08-12T07:17:33.530Z,97257.25
2017-08-12T07:20:01.994Z,97264.48
2017-08-12T07:22:29.571Z,97262.32
2017-08-12T07:24:57.198Z,97266.98
2017-08-12T07:27:24.845Z,97261.89
2017-08-12T07:29:52.443Z,97261.88
2017-08-12T07:32:20.040Z,97258.41
2017-08-12T07:34:47.644Z,97265.22
2017-08-12T07:37:16.122Z,97266.02
2017-08-12T07:39:43.797Z,97265.16
2017-08-12T07:42:11.450Z,97273.23
2017-08-12T07:44:39.109Z,97274.45
2017-08-12T07:47:06.725Z,97275.27
2017-08-12T07:49:34.481Z,97281.99
2017-08-12T07:52:02.090Z,97273.38
2017-08-12T07:54:29.729Z,97271.13
2017-08-12T07:56:57.339Z,97264.60
2017-08-12T07:59:24.957Z,97268.77
2017-08-12T08:01:52.530Z,97270.89
2017-08-12T08:04:20.272Z,97272.17
2017-08-12T08:06:47.858Z,97275.12
2017-08-12T08:09:15.808Z,97278.02
2017-08-12T08:11:43.383Z,97274.09
2017-08-12T08:14:11.024Z,97276.16
2017-08-12T08:16:39.829Z,97276.92
2017-08-12T08:19:07.438Z,97280.31
2017-08-12T08:21:35.079Z,97288.79
2017-08-12T08:24:02.683Z,97280.09
2017-08-12T08:26:30.306Z,97282.23
2017-08-12T08:28:57.899Z,97283.03
2017-08-12T08:31:25.863Z,97281.36
2017-08-12T08:33:53.456Z,97285.55
2017-08-12T08:36:21.067Z,97291.46
2017-08-12T08:38:48.678Z,97286.69
2017-08-12T08:41:16.271Z,97286.58
2017-08-12T08:43:43.897Z,97288.81
2017-08-12T08:46:11.492Z,97289.52
2017-08-12T08:48:39.122Z,97288.05
2017-08-12T08:51:06.716Z,97296.88
2017-08-12T08:53:34.354Z,97290.78
2017-08-12T08:56:01.965Z,97290.50
2017-08-12T08:58:29.928Z,97292.86
2017-08-12T09:00:57.517Z,97301.16
2017-08-12T09:03:25.105Z,97300.08
2017-08-12T09:05:52.715Z,97299.27
2017-08-12T09:08:20.316Z,97298.05
2017-08-12T09:10:47.922Z,97297.73
2017-08-12T09:13:15.653Z,97296.88
2017-08-12T09:15:43.255Z,97295.59
2017-08-12T09:18:10.868Z,97299.48
2017-08-12T09:20:38.533Z,97292.20
2017-08-12T09:23:06.162Z,97295.69
2017-08-12T09:25:33.954Z,97297.88
2017-08-12T09:28:01.581Z,97295.33
2017-08-12T09:30:29.200Z,97303.02
2017-08-12T09:32:56.917Z,97297.53
2017-08-12T09:35:24.532Z,97295.44
2017-08-12T09:37:52.148Z,97301.42
2017-08-12T09:40:19.754Z,97306.95
2017-08-12T09:42:47.359Z,97307.91
2017-08-12T09:45:14.968Z,97310.96
2017-08-12T09:47:42.686Z,97311.87
2017-08-12T09:50:10.291Z,97309.72
2017-08-12T09:52:37.919Z,97312.23
2017-08-12T09:55:05.579Z,97309.64
2017-08-12T09:57:33.195Z,97313.41
2017-08-12T10:00:00.812Z,97313.38
2017-08-12T10:02:28.405Z,97312.94
2017-08-12T10:04:55.993Z,97315.55
2017-08-12T10:07:23.620Z,97314.62
2017-08-12T10:09:51.225Z,97314.06
2017-08-12T10:12:18.853Z,97310.05
2017-08-12T10:14:46.456Z,97309.05
2017-08-12T10:17:14.065Z,97304.22
2017-08-12T10:19:41.716Z,97307.09
2017-08-12T10:22:09.770Z,97304.41
2017-08-12T10:24:37.389Z,97313.23
2017-08-12T10:27:05.023Z,97301.41
2017-08-12T10:29:32.634Z,97302.42
2017-08-12T10:32:00.250Z,97301.81
2017-08-12T10:34:27.870Z,97297.98
2017-08-12T10:36:55.459Z,97301.52
2017-08-12T10:39:23.058Z,97299.41
2017-08-12T10:41:50.650Z,97295.87
2017-08-12T10:44:19.175Z,97300.42
2017-08-12T10:46:46.779Z,97301.73
2017-08-12T10:49:14.386Z,97301.73
2017-08-12T10:51:42.003Z,97299.50
2017-08-12T10:54:09.605Z,97301.58
2017-08-12T10:56:37.221Z,97302.87
2017-08-12T10:59:04.817Z,97302.02
2017-08-12T11:01:32.419Z,97308.58
2017-08-12T11:04:00.075Z,97305.31
2017-08-12T11:06:27.685Z,97314.38
2017-08-12T11:08:55.267Z,97308.53
2017-08-12T11:11:22.859Z,97312.24
2017-08-12T11:13:50.472Z,97311.04
2017-08-12T11:16:18.089Z,97306.58
2017-08-12T11:18:45.702Z,97312.28
2017-08-12T11:21:13.343Z,97312.52
2017-08-12T11:23:41.061Z,97307.41
2017-08-12T11:26:08.695Z,97305.67
2017-08-12T11:28:36.628Z,97306.86
2017-08-12T11:31:04.301Z,97307.48
2017-08-12T11:33:31.913Z,97296.41
2017-08-12T11:35:59.522Z,97303.70
2017-08-12T11:38:27.121Z,97306.73
2017-08-12T11:40:54.796Z,97289.77
2017-08-12T11:43:22.398Z,97297.17
2017-08-12T11:45:50.013Z,97305.44
2017-08-12T11:48:17.629Z,97302.13
2017-08-12T11:50:45.753Z,97301.34
2017-08-12T11:53:14.675Z,97302.91
2017-08-12T11:55:43.398Z,97307.44
2017-08-12T11:58:13.238Z,97310.22
2017-08-12T12:03:08.748Z,97307.24
2017-08-12T12:05:36.358Z,97311.69
2017-08-12T12:08:04.160Z,97312.32
2017-08-12T12:10:31.822Z,97315.53
2017-08-12T12:12:59.783Z,97321.69
2017-08-12T12:15:28.447Z,97317.36
2017-08-12T12:17:56.178Z,97315.84
2017-08-12T12:20:23.795Z,97321.56
2017-08-12T12:22:51.398Z,97316.98
2017-08-12T12:25:19.026Z,97313.20
2017-08-12T12:27:46.733Z,97314.10
2017-08-12T12:30:14.329Z,97318.50
2017-08-12T12:32:41.944Z,97310.68
2017-08-12T12:35:09.543Z,97310.80
2017-08-12T12:37:37.136Z,97314.96
2017-08-12T12:40:04.737Z,97320.98
2017-08-12T12:42:32.344Z,97319.65
2017-08-12T12:45:00.008Z,97318.72
2017-08-12T12:47:27.623Z,97319.18
2017-08-12T12:49:56.891Z,97312.73
2017-08-12T12:52:24.500Z,97305.87
2017-08-12T12:54:52.096Z,97312.73
2017-08-12T12:57:19.747Z,97316.35
2017-08-12T12:59:48.525Z,97313.59
2017-08-12T13:02:16.224Z,97313.95
2017-08-12T13:04:43.821Z,97315.36
2017-08-12T13:07:11.412Z,97319.31
2017-08-12T13:09:39.593Z,97320.86
2017-08-12T13:12:07.211Z,97312.30
2017-08-12T13:14:34.848Z,97314.20
2017-08-12T13:17:02.450Z,97309.27
2017-08-12T13:19:30.612Z,97310.64
2017-08-12T13:21:58.227Z,97306.55
2017-08-12T13:24:26.144Z,97311.02
2017-08-12T13:26:54.913Z,97307.88
2017-08-12T13:29:23.206Z,97307.62
2017-08-12T13:31:51.659Z,97306.22
2017-08-12T13:34:19.284Z,97305.19
2017-08-12T13:36:46.874Z,97308.13
2017-08-12T13:39:14.538Z,97304.96
2017-08-12T13:41:42.241Z,97307.11
2017-08-12T13:44:09.856Z,97309.69
2017-08-12T13:46:37.477Z,97304.90
2017-08-12T13:49:05.401Z,97308.97
2017-08-12T13:51:34.478Z,97308.11
2017-08-12T13:54:02.083Z,97298.66
2017-08-12T13:56:29.688Z,97303.89
2017-08-12T13:58:57.669Z,97306.23
2017-08-12T14:01:25.286Z,97303.77
2017-08-12T14:03:52.892Z,97299.97
2017-08-12T14:06:21.005Z,97302.16
2017-08-12T14:08:48.593Z,97300.37
2017-08-12T14:11:16.224Z,97302.17
2017-08-12T14:13:44.836Z,97298.25
2017-08-12T14:16:12.479Z,97298.38
2017-08-12T14:18:40.088Z,97301.73
2017-08-12T14:21:08.666Z,97306.52
2017-08-12T14:23:36.245Z,97303.59
2017-08-12T14:26:03.889Z,97301.77
2017-08-12T14:28:31.521Z,97305.97
2017-08-12T14:31:02.069Z,97304.98
2017-08-12T14:33:29.765Z,97314.31
2017-08-12T14:35:57.426Z,97313.36
2017-08-12T14:38:25.090Z,97312.75
2017-08-12T14:40:53.013Z,97318.43
2017-08-12T14:43:20.587Z,97315.41
2017-08-12T14:45:48.343Z,97312.27
2017-08-12T14:48:15.968Z,97315.00
2017-08-12T14:50:43.616Z,97315.55
2017-08-12T14:53:11.282Z,97313.97
2017-08-12T14:55:39.482Z,97311.50
2017-08-12T14:58:07.424Z,97315.06
2017-08-12T15:00:35.018Z,97319.44
2017-08-12T15:03:02.634Z,97321.16
2017-08-12T15:05:30.251Z,97315.57
2017-08-12T15:07:57.822Z,97320.85
2017-08-12T15:10:25.424Z,97333.67
2017-08-12T15:12:53.050Z,97336.88
2017-08-12T15:15:21.005Z,97325.52
2017-08-12T15:17:48.598Z,97333.47
2017-08-12T15:20:16.388Z,97337.52
2017-08-12T15:22:43.983Z,97343.20
2017-08-12T15:25:11.789Z,97340.45
2017-08-12T15:27:39.413Z,97339.31
2017-08-12T15:30:07.002Z,97346.41
2017-08-12T15:32:34.979Z,97350.73
2017-08-12T15:35:02.571Z,97357.20
2017-08-12T15:37:30.214Z,97348.66
2017-08-12T15:39:57.826Z,97344.07
2017-08-12T15:42:25.524Z,97347.56
2017-08-12T15:44:53.264Z,97348.05
2017-08-12T15:47:20.823Z,97354.55
2017-08-12T15:49:48.794Z,97348.25
2017-08-12T15:52:16.371Z,97360.38
2017-08-12T15:54:43.971Z,97357.09
2017-08-12T15:57:11.603Z,97358.41
2017-08-12T15:59:39.204Z,97364.84
2017-08-12T16:02:06.837Z,97357.83
2017-08-12T16:04:34.482Z,97354.65
2017-08-12T16:07:02.510Z,97351.03
2017-08-12T16:09:30.108Z,97356.54
2017-08-12T16:11:57.695Z,97357.42
2017-08-12T16:14:25.306Z,97349.74
2017-08-12T16:16:56.138Z,97348.95
2017-08-12T16:19:23.868Z,97348.19
2017-08-12T16:21:51.549Z,97346.53
2017-08-12T16:24:19.551Z,97346.99
2017-08-12T16:26:47.213Z,97341.91
2017-08-12T16:29:14.821Z,97344.52
2017-08-12T16:31:42.414Z,97344.98
2017-08-12T16:34:10.005Z,97341.14
2017-08-12T16:36:37.630Z,97352.35
2017-08-12T16:39:05.436Z,97351.49
2017-08-12T16:41:33.231Z,97355.38
2017-08-12T16:44:00.838Z,97350.27
2017-08-12T16:46:28.592Z,97348.13
2017-08-12T16:48:56.225Z,97346.84
2017-08-12T16:51:23.825Z,97347.76
2017-08-12T16:53:51.812Z,97352.53
2017-08-12T16:56:19.594Z,97343.96
2017-08-12T16:58:47.191Z,97346.04
2017-08-12T17:01:14.838Z,97345.16
2017-08-12T17:03:42.445Z,97350.30
2017-08-12T17:06:10.324Z,97350.33
2017-08-12T17:08:37.910Z,97347.33
2017-08-12T17:11:05.536Z,97354.61
2017-08-12T17:13:33.167Z,97348.64
2017-08-12T17:16:00.755Z,97348.27
2017-08-12T17:18:28.389Z,97346.59
2017-08-12T17:20:56.152Z,97343.63
2017-08-12T17:23:24.138Z,97351.39
2017-08-12T17:25:51.867Z,97344.16
2017-08-12T17:28:19.481Z,97346.39
2017-08-12T17:30:47.106Z,97343.02
2017-08-12T17:33:14.665Z,97346.91
2017-08-12T17:35:44.543Z,97341.39
2017-08-12T17:38:13.578Z,97343.53
2017-08-12T17:40:41.185Z,97340.08
2017-08-12T17:43:08.833Z,97341.31
2017-08-12T17:45:36.475Z,97339.17
2017-08-12T17:48:04.105Z,97335.73
2017-08-12T17:50:31.686Z,97341.31
2017-08-12T17:53:00.049Z,97337.11
2017-08-12T17:55:29.268Z,97336.28
2017-08-12T17:57:58.565Z,97338.05
2017-08-12T18:00:26.181Z,97334.70
2017-08-12T18:02:54.246Z,97345.47
2017-08-12T18:05:21.900Z,97345.17
2017-08-12T18:07:52.042Z,97345.66
2017-08-12T18:10:22.259Z,97344.48
2017-08-12T18:12:49.883Z,97342.82
2017-08-12T18:15:19.515Z,97338.59
2017-08-12T18:17:47.340Z,97339.97
2017-08-12T18:20:16.997Z,97345.20
2017-08-12T18:22:44.697Z,97343.99
2017-08-12T18:25:13.386Z,97353.88
2017-08-12T18:27:41.131Z,97354.38
2017-08-12T18:30:08.742Z,97355.30
2017-08-12T18:32:36.390Z,97349.81
2017-08-12T18:35:04.161Z,97354.61
2017-08-12T18:37:31.803Z,97357.66
2017-08-12T18:39:59.548Z,97359.43
2017-08-12T18:42:27.196Z,97362.48
2017-08-12T18:44:54.783Z,97362.55
2017-08-12T18:47:25.685Z,97368.12
2017-08-12T18:49:53.332Z,97362.18
2017-08-12T18:52:20.917Z,97358.39
2017-08-12T18:54:48.730Z,97364.34
2017-08-12T18:57:17.629Z,97374.22
2017-08-12T18:59:45.305Z,97374.25
2017-08-12T19:02:12.933Z,97383.27
2017-08-12T19:04:40.549Z,97385.88
2017-08-12T19:07:08.120Z,97387.22
2017-08-12T19:09:36.316Z,97391.08
2017-08-12T19:12:04.705Z,97392.38
2017-08-12T19:14:32.305Z,97393.30
2017-08-12T19:16:59.940Z,97391.61
2017-08-12T19:19:29.257Z,97389.50
2017-08-12T19:21:57.019Z,97386.55
2017-08-12T19:24:24.630Z,97389.14
2017-08-12T19:26:52.264Z,97387.86
2017-08-12T19:29:21.107Z,97391.72
2017-08-12T19:31:48.852Z,97392.59
2017-08-12T19:34:16.483Z,97396.02
2017-08-12T19:36:44.124Z,97387.91
2017-08-12T19:39:11.752Z,97392.63
2017-08-12T19:41:39.808Z,97395.23
2017-08-12T19:44:07.424Z,97397.80
2017-08-12T19:46:36.563Z,97395.69
2017-08-12T19:49:04.514Z,97387.16
2017-08-12T19:51:34.568Z,97385.49
2017-08-12T19:54:02.257Z,97382.06
2017-08-12T19:56:29.924Z,97389.34
2017-08-12T19:59:00.294Z,97388.50
2017-08-12T20:01:28.873Z,97386.80
2017-08-12T20:03:57.189Z,97386.39
2017-08-12T20:06:26.034Z,97390.27
2017-08-12T20:08:54.873Z,97383.89
2017-08-12T20:11:24.365Z,97394.52
2017-08-12T20:13:52.295Z,97386.88
2017-08-12T20:16:19.906Z,97393.71
2017-08-12T20:18:47.535Z,97388.59
2017-08-12T20:21:19.623Z,97401.00
2017-08-12T20:23:47.545Z,97393.33
2017-08-12T20:26:16.515Z,97395.90
2017-08-12T20:28:45.331Z,97400.62
2017-08-12T20:31:14.504Z,97398.91
2017-08-12T20:33:42.572Z,97401.06
2017-08-12T20:36:10.854Z,97394.68
2017-08-12T20:38:42.239Z,97392.98
2017-08-12T20:41:09.976Z,97398.53
2017-08-12T20:43:39.643Z,97406.23
2017-08-12T20:46:08.670Z,97410.95
2017-08-12T20:48:37.955Z,97416.49
2017-08-12T20:51:05.935Z,97422.91
2017-08-12T20:53:33.541Z,97420.80
2017-08-12T20:56:01.289Z,97421.22
2017-08-12T20:58:29.940Z,97419.55
2017-08-12T21:00:57.567Z,97417.41
2017-08-12T21:03:25.226Z,97410.16
2017-08-12T21:05:52.817Z,97419.58
2017-08-12T21:08:21.789Z,97418.73
2017-08-12T21:10:49.424Z,97425.55
2017-08-12T21:13:17.121Z,97422.13
2017-08-12T21:15:44.754Z,97419.58
2017-08-12T21:18:17.701Z,97422.13
2017-08-12T21:20:45.301Z,97422.13
2017-08-12T21:23:12.874Z,97422.54
2017-08-12T21:25:40.533Z,97418.70
2017-08-12T21:28:08.144Z,97417.01
2017-08-12T21:30:35.754Z,97425.10
2017-08-12T21:33:03.475Z,97422.14
2017-08-12T21:35:31.079Z,97418.70
2017-08-12T21:38:00.427Z,97422.53
2017-08-12T21:40:28.127Z,97419.13
2017-08-12T21:42:55.784Z,97422.97
2017-08-12T21:45:23.708Z,97416.58
2017-08-12T21:47:51.315Z,97424.67
2017-08-12T21:50:20.040Z,97426.78
2017-08-12T21:52:47.708Z,97427.65
2017-08-12T21:55:16.329Z,97427.64
2017-08-12T21:57:43.954Z,97429.34
2017-08-12T22:00:11.642Z,97430.59
2017-08-12T22:02:39.229Z,97430.63
2017-08-12T22:05:06.918Z,97433.16
2017-08-12T22:07:34.530Z,97437.01
2017-08-12T22:10:02.118Z,97436.15
2017-08-12T22:12:29.980Z,97441.69
2017-08-12T22:14:57.547Z,97436.98
2017-08-12T22:17:25.128Z,97441.25
2017-08-12T22:19:52.753Z,97443.39
2017-08-12T22:22:20.342Z,97440.39
2017-08-12T22:24:47.952Z,97433.16
2017-08-12T22:27:15.537Z,97432.30
2017-08-12T22:29:43.176Z,97431.03
2017-08-12T22:32:10.743Z,97434.43
2017-08-12T22:34:38.334Z,97431.43
2017-08-12T22:37:05.904Z,97429.73
2017-08-12T22:39:33.874Z,97433.13
2017-08-12T22:42:01.515Z,97428.47
2017-08-12T22:44:29.122Z,97428.88
2017-08-12T22:46:56.736Z,97425.87
2017-08-12T22:49:24.418Z,97422.08
2017-08-12T22:51:52.009Z,97421.64
2017-08-12T22:54:19.705Z,97422.94
2017-08-12T22:56:47.411Z,97411.02
2017-08-12T22:59:15.111Z,97411.44
2017-08-12T23:01:42.739Z,97407.18
2017-08-12T23:04:10.325Z,97407.18
2017-08-12T23:06:37.940Z,97413.17
2017-08-12T23:09:05.514Z,97412.28
2017-08-12T23:11:33.417Z,97413.13
2017-08-12T23:14:01.002Z,97415.72
2017-08-12T23:16:28.671Z,97415.28
2017-08-12T23:18:56.397Z,97407.61
2017-08-12T23:21:25.044Z,97407.19
2017-08-12T23:23:52.655Z,97405.91
2017-08-12T23:26:20.259Z,97406.33
2017-08-12T23:28:47.868Z,97412.73
2017-08-12T23:31:15.478Z,97405.07
2017-08-12T23:33:43.450Z,97402.92
2017-08-12T23:36:11.066Z,97408.90
2017-08-12T23:38:38.650Z,97412.75
2017-08-12T23:41:06.241Z,97409.33
2017-08-12T23:43:33.839Z,97411.02
2017-08-12T23:46:01.532Z,97408.48
2017-08-12T23:48:29.185Z,97414.47
2017-08-12T23:50:57.232Z,97408.52
2017-08-12T23:53:24.834Z,97407.21
2017-08-12T23:55:52.746Z,97408.50
2017-08-12T23:58:20.324Z,97408.52
